TimePST,TemperatureF,Dew PointF,Humidity,Sea Level PressureIn,VisibilityMPH,Wind Direction,Wind SpeedMPH,Gust SpeedMPH,PrecipitationIn,Events,Conditions,WindDirDegrees,DateUTC
12:53 AM,44.1,28.0,53,29.92,10.0,Calm,Calm,-,N/A,,Clear,0,2013-03-05 08:53:00
1:53 AM,44.1,27.0,51,29.91,10.0,Calm,Calm,-,N/A,,Partly Cloudy,0,2013-03-05 09:53:00
2:53 AM,42.1,28.0,58,29.88,10.0,Calm,Calm,-,N/A,,Scattered Clouds,0,2013-03-05 10:53:00
3:53 AM,42.1,27.0,55,29.87,10.0,Calm,Calm,-,N/A,,Overcast,0,2013-03-05 11:53:00
4:53 AM,42.8,30.2,61,29.86,10.0,Calm,Calm,-,N/A,,Overcast,0,2013-03-05 12:53:00
5:53 AM,45.0,32.0,60,29.84,10.0,Calm,Calm,-,N/A,,Overcast,0,2013-03-05 13:53:00
6:53 AM,45.0,33.1,63,29.83,10.0,Calm,Calm,-,N/A,,Overcast,0,2013-03-05 14:53:00
7:53 AM,45.0,32.0,60,29.84,10.0,NNW,4.6,-,N/A,,Overcast,340,2013-03-05 15:53:00
8:53 AM,46.0,30.9,56,29.86,10.0,Calm,Calm,-,N/A,,Overcast,0,2013-03-05 16:53:00
9:53 AM,48.0,30.9,52,29.85,10.0,Calm,Calm,-,N/A,,Overcast,0,2013-03-05 17:53:00
10:53 AM,48.9,32.0,52,29.83,10.0,NE,6.9,-,N/A,,Overcast,40,2013-03-05 18:53:00
11:53 AM,50.0,33.1,52,29.82,10.0,NW,4.6,-,N/A,,Overcast,310,2013-03-05 19:53:00
12:53 PM,48.9,36.0,61,29.81,10.0,NW,5.8,-,N/A,,Overcast,310,2013-03-05 20:53:00
1:53 PM,50.0,37.0,61,29.81,10.0,West,5.8,-,N/A,,Overcast,270,2013-03-05 21:53:00
2:53 PM,50.0,36.0,59,29.79,10.0,Calm,Calm,-,N/A,,Overcast,0,2013-03-05 22:53:00
3:53 PM,48.9,36.0,61,29.79,10.0,WSW,3.5,-,N/A,,Overcast,240,2013-03-05 23:53:00
4:53 PM,48.0,37.0,66,29.79,10.0,West,8.1,-,0.00,,Overcast,270,2013-03-06 00:53:00
5:53 PM,46.9,37.9,71,29.79,10.0,WNW,3.5,-,N/A,,Overcast,290,2013-03-06 01:53:00
6:53 PM,46.0,37.0,71,29.79,10.0,Variable,5.8,-,N/A,,Overcast,0,2013-03-06 02:53:00
7:53 PM,45.0,37.9,76,29.79,10.0,WNW,4.6,-,N/A,,Overcast,300,2013-03-06 03:53:00
8:53 PM,45.0,39.0,80,29.78,10.0,Variable,3.5,-,N/A,,Overcast,0,2013-03-06 04:53:00
9:53 PM,45.0,39.0,80,29.77,10.0,Calm,Calm,-,0.00,,Overcast,0,2013-03-06 05:53:00
10:53 PM,46.0,37.9,73,29.75,10.0,North,5.8,-,N/A,,Overcast,360,2013-03-06 06:53:00
11:53 PM,45.0,37.9,76,29.73,10.0,Calm,Calm,-,N/A,,Overcast,0,2013-03-06 07:53:00